Latest Weather Observations for Maitland Airport

IDN60801

Issued at 5:23 pm EDT Saturday 5 December 2020 (issued every 10 minutes, with the page automatically refreshed every 10 minutes)

About weather observations | Map of weather stations | Latest weather observations for NSW | Other Formats
Station Details ID: 061428 Name: MAITLAND AIRPORT AWS Lat: -32.70 Lon: 151.49 Height: 27.5 m
Data from the previous 72 hours. | See also: Recent months at Maitland Airport
Date/Time
EDT
Temp
°C
App
Temp
°C
Dew
Point
°C
Rel
Hum
%
Delta-T
°C
Wind Press
QNH
hPa
Press
MSL
hPa
Rain since
9am
mm
Dir  Spd
km/h
Gust
km/h
Spd
kts
Gust
kts
05/05:00pm 26.6 29.9 19.2 64 4.8 CALM 0 9 0 5 1004.2 1004.1 0.0
05/04:30pm 25.5 26.4 19.2 68 4.0 N 13 20 7 11 1004.8 1004.7 0.0
05/04:00pm 25.5 26.8 19.2 68 4.1 WNW 11 20 6 11 1005.7 1005.6 0.0
05/03:30pm 26.5 26.7 19.4 65 4.6 WNW 17 26 9 14 1007.5 1007.4 0.0
05/03:00pm 26.4 27.3 20.0 68 4.2 W 15 20 8 11 1008.1 1008.0 0.0
05/02:30pm 27.2 27.2 19.8 64 4.8 WSW 19 28 10 15 1008.4 1008.3 0.0
05/02:00pm 28.2 30.7 20.2 62 5.3 ESE 7 15 4 8 1006.6 1006.5 0.0
05/01:30pm 28.4 32.1 19.9 60 5.6 CALM 0 7 0 4 1007.3 1007.2 0.0
05/01:00pm 27.7 29.9 19.2 60 5.5 SSE 6 11 3 6 1007.9 1007.8 0.0
05/12:30pm 27.1 29.1 18.7 60 5.4 ENE 6 9 3 5 1008.7 1008.6 0.0
05/12:00pm 27.4 30.0 20.5 66 4.5 ENE 7 17 4 9 1009.5 1009.4 0.0
05/11:30am 26.7 29.3 20.1 67 4.3 ESE 6 17 3 9 1009.6 1009.5 0.0
05/11:00am 25.8 28.1 19.4 67 4.1 SSE 6 13 3 7 1010.5 1010.4 0.0
05/10:30am 24.9 26.6 18.1 66 4.3 SE 6 13 3 7 1011.1 1011.0 0.0
05/10:00am 24.1 25.7 18.3 70 3.7 SE 7 19 4 10 1011.4 1011.3 0.0
05/09:30am 23.1 23.8 18.0 73 3.2 ESE 11 15 6 8 1012.0 1011.9 0.0
05/09:00am 22.7 23.4 18.0 75 2.9 ESE 11 15 6 8 1012.6 1012.5 0.0
05/08:30am 22.5 23.8 18.5 78 2.5 E 9 11 5 6 1012.8 1012.7 0.0
05/08:00am 22.2 24.1 18.6 80 2.3 SSE 6 11 3 6 1013.1 1013.0 0.0
05/07:36am 20.8 23.3 18.2 85 1.6 SSE 2 7 1 4 1013.1 1013.0 0.0
05/07:30am 20.2 22.8 17.4 84 1.7 CALM 0 0 0 0 1012.9 1012.8 0.0
05/07:00am 18.2 20.4 16.5 90 1.0 CALM 0 0 0 0 1013.1 1013.0 0.0
05/06:53am 17.9 20.3 16.9 94 0.6 CALM 0 0 0 0 1013.1 1013.0 0.0
05/06:30am 16.9 18.9 16.1 95 0.5 CALM 0 0 0 0 1012.8 1012.7 0.0
05/06:17am 16.3 18.1 15.5 95 0.5 CALM 0 0 0 0 1012.9 1012.8 0.0
05/06:00am 15.6 16.9 14.1 91 0.8 CALM 0 0 0 0 1012.7 1012.6 0.0
05/05:30am 15.7 15.9 14.1 90 0.9 SSE 6 7 3 4 1012.5 1012.4 0.0
05/05:09am 15.2 15.4 14.1 93 0.6 SSE 6 9 3 5 1012.6 1012.5 0.0
05/05:00am 14.8 14.6 13.7 93 0.6 SSE 7 9 4 5 1012.5 1012.4 0.0
05/04:30am 14.6 15.8 13.8 95 0.4 CALM 0 0 0 0 1012.4 1012.3 0.0
05/04:00am 14.7 14.6 13.4 92 0.7 SSE 6 7 3 4 1012.2 1012.1 0.0
05/03:30am 15.4 16.4 13.1 86 1.3 CALM 0 0 0 0 1012.3 1012.2 0.0
05/03:00am 17.0 18.3 14.1 83 1.7 CALM 0 0 0 0 1012.6 1012.5 0.0
05/02:30am 16.9 16.3 11.8 72 2.8 SSE 6 7 3 4 1012.3 1012.2 0.0
05/02:00am 17.3 17.4 11.6 69 3.1 SSE 2 9 1 5 1012.3 1012.2 0.0
05/01:30am 19.6 17.4 10.9 57 4.7 SSE 13 19 7 10 1012.6 1012.5 0.0
05/01:00am 19.9 16.7 10.0 53 5.3 SSE 17 24 9 13 1012.6 1012.5 0.0
05/12:30am 18.4 15.5 11.0 62 4.0 SSW 17 24 9 13 1012.6 1012.5 0.0
05/12:00am 17.8 16.8 11.1 65 3.6 SSE 7 9 4 5 1012.1 1012.0 0.0
 
Date/Time
EDT
Temp
°C
App
Temp
°C
Dew
Point
°C
Rel
Hum
%
Delta-T
°C
Wind Press
QNH
hPa
Press
MSL
hPa
Rain since
9am
mm
Dir  Spd
km/h
Gust
km/h
Spd
kts
Gust
kts
04/11:30pm 18.7 17.6 10.0 57 4.6 SE 6 9 3 5 1012.4 1012.3 0.0
04/11:00pm 18.7 17.3 11.0 61 4.2 SE 9 9 5 5 1012.6 1012.5 0.0
04/10:30pm 19.7 18.8 10.7 56 4.9 SE 6 9 3 5 1012.5 1012.4 0.0
04/10:00pm 19.3 19.7 11.1 59 4.5 CALM 0 7 0 4 1012.2 1012.1 0.0
04/09:30pm 21.0 19.9 9.9 49 6.0 E 6 7 3 4 1012.3 1012.2 0.0
04/09:00pm 22.5 20.4 8.2 40 7.5 E 9 11 5 6 1012.2 1012.1 0.0
04/08:30pm 23.4 20.2 6.7 34 8.6 E 13 17 7 9 1011.8 1011.7 0.0
04/08:00pm 24.4 20.2 5.7 30 9.5 ESE 17 24 9 13 1011.6 1011.5 0.0
04/07:30pm 25.6 20.5 5.8 28 10.2 ESE 22 28 12 15 1011.3 1011.2 0.0
04/07:00pm 26.6 22.6 9.0 33 9.6 ESE 20 32 11 17 1010.7 1010.6 0.0
04/06:30pm 27.5 23.1 8.9 31 10.2 E 22 32 12 17 1010.4 1010.3 0.0
04/06:00pm 27.9 23.1 8.7 30 10.5 E 24 30 13 16 1010.0 1009.9 0.0
04/05:30pm 28.2 23.2 9.5 31 10.4 ESE 26 32 14 17 1009.7 1009.6 0.0
04/05:00pm 28.9 25.3 11.9 35 9.9 ESE 22 32 12 17 1009.6 1009.5 0.0
04/04:30pm 28.8 25.7 13.5 39 9.1 ESE 22 32 12 17 1009.6 1009.5 0.0
04/04:00pm 29.0 26.3 15.5 44 8.3 ESE 24 30 13 16 1009.7 1009.6 0.0
04/03:30pm 29.8 27.8 17.3 47 7.9 E 24 33 13 18 1009.8 1009.7 0.0
04/03:00pm 30.2 29.7 19.9 54 6.8 ESE 22 32 12 17 1010.0 1009.9 0.0
04/02:30pm 30.3 31.1 21.7 60 5.8 E 20 26 11 14 1010.2 1010.1 0.0
04/02:00pm 31.8 34.0 21.9 55 6.7 ESE 13 20 7 11 1010.6 1010.5 0.0
04/01:30pm 32.4 34.7 20.6 49 7.9 SE 9 13 5 7 1011.1 1011.0 0.0
04/01:00pm 30.6 32.3 19.3 51 7.4 SW 9 19 5 10 1011.8 1011.7 0.0
04/12:30pm 30.8 33.2 18.8 48 7.8 SSW 4 7 2 4 1012.3 1012.2 0.0
04/12:00pm 30.4 32.8 20.9 57 6.3 S 9 13 5 7 1012.8 1012.7 0.0
04/11:30am 29.6 32.1 20.2 57 6.2 SW 7 13 4 7 1013.2 1013.1 0.0
04/11:00am 28.8 30.1 19.4 56 6.1 SSW 11 17 6 9 1013.6 1013.5 0.0
04/10:30am 29.3 31.6 20.7 59 5.7 WSW 9 20 5 11 1013.8 1013.7 0.0
04/10:00am 28.3 28.0 19.2 57 5.9 WSW 19 26 10 14 1014.3 1014.2 0.0
04/09:30am 26.9 28.4 19.8 65 4.6 W 11 19 6 10 1014.6 1014.5 0.0
04/09:00am 25.9 26.5 19.5 68 4.1 W 15 24 8 13 1014.8 1014.7 0.0
04/08:30am 24.1 26.0 19.8 77 2.8 W 9 15 5 8 1014.7 1014.6 0.0
04/08:00am 22.5 23.8 20.2 87 1.5 W 13 19 7 10 1014.6 1014.5 0.0
04/07:45am 21.0 22.3 19.3 90 1.1 WSW 11 17 6 9 1014.4 1014.3 0.0
04/07:30am 20.5 21.8 19.2 92 0.8 WSW 11 15 6 8 1014.1 1014.0 0.0
04/07:25am 20.5 22.3 19.5 94 0.6 WSW 9 15 5 8 1014.0 1013.9 0.0
04/07:00am 19.7 21.5 19.5 99 0.1 W 9 15 5 8 1013.7 1013.6 0.0
04/06:30am 19.0 20.5 19.0 100 0.0 W 9 13 5 7 1013.5 1013.4 0.0
04/06:00am 18.8 20.3 18.8 100 0.0 SSE 9 13 5 7 1013.4 1013.3 0.0
04/05:42am 18.1 20.6 18.1 100 0.0 SE 2 7 1 4 1013.3 1013.2 0.0
04/05:30am 18.0 20.7 17.8 99 0.1 CALM 0 6 0 3 1013.2 1013.1 0.0
04/05:00am 18.2 21.0 18.0 99 0.1 CALM 0 0 0 0 1013.1 1013.0 0.0
04/04:30am 18.3 21.1 18.0 98 0.2 CALM 0 0 0 0 1013.2 1013.1 0.0
04/04:29am 18.3 21.1 18.0 98 0.2 CALM 0 0 0 0 1013.2 1013.1 0.0
04/04:00am 18.9 20.8 18.6 98 0.2 SE 6 7 3 4 1013.4 1013.3 0.0
04/03:30am 19.1 20.9 18.8 98 0.2 SE 7 11 4 6 1013.9 1013.8 0.0
04/03:00am 19.2 21.3 18.9 98 0.2 SE 6 9 3 5 1014.3 1014.2 0.0
04/02:30am 19.4 21.0 19.1 98 0.2 SE 9 11 5 6 1014.6 1014.5 0.0
04/02:00am 19.6 21.5 18.9 96 0.4 SE 7 9 4 5 1014.7 1014.6 0.0
04/01:30am 19.8 23.1 19.1 96 0.4 CALM 0 0 0 0 1015.2 1015.1 0.0
04/01:00am 19.8 21.8 19.1 96 0.4 SE 7 9 4 5 1015.8 1015.7 0.0
04/12:30am 20.0 22.1 19.3 96 0.4 SE 7 11 4 6 1015.9 1015.8 0.0
04/12:00am 20.1 22.3 19.3 95 0.5 SE 6 9 3 5 1016.3 1016.2 0.0
 
Date/Time
EDT
Temp
°C
App
Temp
°C
Dew
Point
°C
Rel
Hum
%
Delta-T
°C
Wind Press
QNH
hPa
Press
MSL
hPa
Rain since
9am
mm
Dir  Spd
km/h
Gust
km/h
Spd
kts
Gust
kts
03/11:30pm 20.3 22.5 19.3 94 0.6 SE 6 7 3 4 1016.3 1016.2 0.0
03/11:00pm 20.4 22.4 19.2 93 0.8 SE 7 9 4 5 1016.7 1016.6 0.0
03/10:30pm 20.9 22.9 19.2 90 1.1 SE 7 9 4 5 1016.9 1016.8 0.0
03/10:00pm 21.0 23.1 19.3 90 1.1 SE 7 11 4 6 1016.7 1016.6 0.0
03/09:30pm 21.1 22.8 19.4 90 1.1 SE 9 11 5 6 1017.0 1016.9 0.0
03/09:00pm 21.3 23.0 19.4 89 1.2 SE 9 13 5 7 1017.0 1016.9 0.0
03/08:30pm 21.4 23.1 19.3 88 1.3 SE 9 11 5 6 1017.3 1017.2 0.0
03/08:00pm 21.6 23.2 19.2 86 1.5 SE 9 13 5 7 1017.6 1017.5 0.0
03/07:30pm 21.8 23.1 19.2 85 1.6 SE 11 17 6 9 1017.4 1017.3 0.0
03/07:00pm 22.2 22.6 19.0 82 2.0 ESE 15 20 8 11 1016.9 1016.8 0.0
03/06:30pm 22.4 23.1 18.8 80 2.3 SE 13 17 7 9 1017.3 1017.2 0.0
03/06:00pm 22.4 22.8 19.0 81 2.2 SE 15 24 8 13 1016.5 1016.4 0.0
03/05:30pm 22.7 22.5 19.3 81 2.2 SE 19 26 10 14 1016.6 1016.5 0.0
03/05:00pm 23.0 22.7 19.2 79 2.4 SE 19 26 10 14 1016.7 1016.6 0.0
03/04:30pm 23.1 23.2 19.1 78 2.5 SE 17 26 9 14 1016.8 1016.7 0.0
03/04:00pm 23.6 23.7 19.1 76 2.9 ESE 17 22 9 12 1017.4 1017.3 0.0
03/03:30pm 23.8 23.9 19.1 75 3.0 E 17 22 9 12 1017.9 1017.8 0.0
03/03:00pm 24.4 25.2 19.9 76 2.9 ESE 15 22 8 12 1018.5 1018.4 0.0
03/02:30pm 23.4 23.2 18.5 74 3.1 ESE 17 22 9 12 1018.9 1018.8 0.0
03/02:00pm 23.9 24.7 19.0 74 3.1 NE 13 20 7 11 1019.7 1019.6 0.0
03/01:30pm 22.9 23.0 18.4 76 2.8 NE 15 24 8 13 1020.2 1020.1 0.0
03/01:00pm 22.3 21.4 18.1 77 2.6 ENE 20 26 11 14 1020.1 1020.0 0.0
03/12:30pm 21.6 20.7 17.8 79 2.4 E 19 26 10 14 1020.7 1020.6 0.0
03/12:00pm 22.1 21.3 17.9 77 2.6 ENE 19 26 10 14 1021.0 1020.9 0.0
03/11:30am 22.2 20.0 17.8 76 2.7 ENE 26 33 14 18 1021.0 1020.9 0.0
03/11:00am 21.4 19.9 17.6 79 2.3 ENE 22 32 12 17 1021.8 1021.7 0.0
03/10:30am 21.0 19.8 17.4 80 2.2 E 20 28 11 15 1022.0 1021.9 0.0
03/10:00am 20.5 19.5 17.5 83 1.8 E 19 26 10 14 1022.0 1021.9 0.0
03/09:46am 20.3 19.5 17.9 86 1.5 E 19 26 10 14 1021.9 1021.8 0.0
03/09:30am 20.3 19.6 18.2 88 1.3 E 19 26 10 14 1021.6 1021.5 0.0
03/09:00am 19.2 18.9 18.2 94 0.6 ESE 17 26 9 14 1021.8 1021.7 1.0
03/08:40am 19.2 18.7 17.9 92 0.8 ESE 17 22 9 12 1021.9 1021.8 1.0
03/08:30am 19.0 18.5 17.8 93 0.7 ESE 17 20 9 11 1021.9 1021.8 1.0
03/08:08am 18.6 18.4 17.6 94 0.6 SE 15 20 8 11 1022.2 1022.1 1.0
03/08:00am 18.7 18.2 17.9 95 0.5 ESE 17 24 9 13 1022.2 1022.1 1.0
03/07:30am 18.0 17.5 17.7 98 0.2 ESE 17 20 9 11 1022.0 1021.9 1.0
03/07:27am 18.0 17.5 17.7 98 0.2 ESE 17 22 9 12 1022.1 1022.0 1.0
03/07:12am 17.9 17.3 17.6 98 0.2 ESE 17 24 9 13 1022.2 1022.1 1.0
03/07:10am 17.9 17.3 17.6 98 0.2 ESE 17 24 9 13 1022.2 1022.1 1.0
03/07:02am 18.0 17.5 17.7 98 0.2 ESE 17 26 9 14 1022.1 1022.0 1.0
03/07:00am 17.9 17.3 17.6 98 0.2 ESE 17 26 9 14 1022.1 1022.0 1.0
03/06:30am 17.6 17.1 16.8 95 0.5 E 15 20 8 11 1022.1 1022.0 1.0
03/06:29am 17.7 17.2 16.9 95 0.5 E 15 20 8 11 1022.0 1021.9 1.0
03/06:00am 17.8 18.1 17.0 95 0.5 E 11 15 6 8 1021.8 1021.7 1.0
03/05:33am 17.6 17.5 17.0 96 0.4 E 13 17 7 9 1021.7 1021.6 1.0
03/05:30am 17.6 17.9 17.0 96 0.4 E 11 17 6 9 1021.8 1021.7 1.0
03/05:28am 17.6 17.8 16.8 95 0.5 E 11 17 6 9 1021.9 1021.8 1.0
03/05:12am 17.7 17.5 16.7 94 0.6 E 13 17 7 9 1022.0 1021.9 1.0
03/05:00am 17.9 17.7 16.6 92 0.8 ESE 13 17 7 9 1022.2 1022.1 1.0
03/04:59am 17.9 17.7 16.6 92 0.8 ESE 13 17 7 9 1022.2 1022.1 1.0
03/04:30am 18.0 16.9 16.3 90 1.0 E 17 22 9 12 1021.9 1021.8 1.0
03/04:00am 18.2 17.0 16.2 88 1.2 ENE 17 24 9 13 1021.9 1021.8 1.0
03/03:30am 18.8 18.2 15.7 82 1.8 E 13 24 7 13 1022.0 1021.9 1.0
03/03:00am 18.6 17.8 16.0 85 1.5 E 15 20 8 11 1022.2 1022.1 1.0
03/02:30am 19.0 17.8 16.0 83 1.8 E 17 24 9 13 1021.8 1021.7 1.0
03/02:00am 19.2 17.7 15.3 78 2.3 ESE 17 24 9 13 1022.5 1022.4 1.0
03/01:30am 19.2 19.3 16.4 84 1.7 SE 11 15 6 8 1022.8 1022.7 1.0
03/01:00am 19.2 18.8 16.2 83 1.8 ESE 13 17 7 9 1023.1 1023.0 1.0
03/12:30am 19.2 18.9 16.4 84 1.7 SE 13 19 7 10 1023.3 1023.2 1.0
03/12:00am 19.1 19.4 16.9 87 1.3 ESE 11 17 6 9 1023.8 1023.7 1.0
 
Date/Time
EDT
Temp
°C
App
Temp
°C
Dew
Point
°C
Rel
Hum
%
Delta-T
°C
Wind Press
QNH
hPa
Press
MSL
hPa
Rain since
9am
mm
Dir  Spd
km/h
Gust
km/h
Spd
kts
Gust
kts
02/11:30pm 18.6 19.4 17.4 93 0.7 E 9 13 5 7 1023.9 1023.8 1.0
02/11:00pm 18.3 17.5 17.0 92 0.8 E 17 24 9 13 1023.7 1023.6 1.0
02/10:59pm 18.3 17.5 17.0 92 0.8 E 17 24 9 13 1023.7 1023.6 1.0
02/10:30pm 18.1 17.4 17.3 95 0.5 ESE 17 24 9 13 1023.9 1023.8 0.8
02/10:00pm 18.3 17.2 17.3 94 0.6 ESE 19 24 10 13 1023.6 1023.5 0.4
02/09:30pm 18.5 17.7 17.2 92 0.8 ESE 17 24 9 13 1023.2 1023.1 0.2
02/09:29pm 18.6 17.9 17.3 92 0.8 ESE 17 24 9 13 1023.3 1023.2 0.0
02/09:00pm 19.6 18.5 16.4 82 1.9 E 17 26 9 14 1022.4 1022.3 0.0
02/08:30pm 20.0 18.8 16.2 79 2.3 E 17 22 9 12 1022.0 1021.9 0.0
02/08:00pm 20.0 18.5 16.2 79 2.3 E 19 30 10 16 1021.6 1021.5 0.0
02/07:30pm 20.3 19.2 16.3 78 2.4 ENE 17 26 9 14 1021.4 1021.3 0.0
02/07:00pm 20.4 19.3 16.4 78 2.4 E 17 22 9 12 1021.4 1021.3 0.0
02/06:30pm 20.6 19.4 16.2 76 2.6 ESE 17 24 9 13 1021.7 1021.6 0.0
02/06:00pm 20.7 19.6 16.3 76 2.6 E 17 26 9 14 1020.9 1020.8 0.0
02/05:30pm 20.3 18.8 16.3 78 2.4 E 19 30 10 16 1020.5 1020.4 0.0

Other formats

Comma delimited format used in spreadsheet applications
http://www.bom.gov.au/fwo/IDN60801/IDN60801.94650.axf

JavaScript Object Notation format (JSON) in row-major order
http://www.bom.gov.au/fwo/IDN60801/IDN60801.94650.json

Data quality

Most of these data are generated automatically and are frequently updated. Quality checks on data are not normally performed. It is possible for incorrect values to appear. Refer to information at About Latest Weather Observations and please check the disclaimer before using these data.